sensor_id;sensor_type;location;lat;lon;timestamp;P1;durP1;ratioP1;P2;durP2;ratioP2
29730;SDS011;16639;51.488;0.152;2022-12-15T00:01:24;15.15;;;6.68;;
29730;SDS011;16639;51.488;0.152;2022-12-15T00:04:10;19.27;;;9.27;;
29730;SDS011;16639;51.488;0.152;2022-12-15T00:06:56;16.48;;;7.70;;
29730;SDS011;16639;51.488;0.152;2022-12-15T00:09:42;18.48;;;8.27;;
29730;SDS011;16639;51.488;0.152;2022-12-15T00:12:28;25.48;;;7.75;;
29730;SDS011;16639;51.488;0.152;2022-12-15T00:15:14;16.08;;;7.93;;
29730;SDS011;16639;51.488;0.152;2022-12-15T00:18:04;16.67;;;8.10;;
29730;SDS011;16639;51.488;0.152;2022-12-15T00:20:50;21.20;;;7.60;;
29730;SDS011;16639;51.488;0.152;2022-12-15T00:23:36;16.38;;;7.88;;
29730;SDS011;16639;51.488;0.152;2022-12-15T00:26:22;21.47;;;8.90;;
29730;SDS011;16639;51.488;0.152;2022-12-15T00:29:08;18.35;;;8.52;;
29730;SDS011;16639;51.488;0.152;2022-12-15T00:31:54;15.00;;;9.03;;
29730;SDS011;16639;51.488;0.152;2022-12-15T00:34:40;14.32;;;6.35;;
29730;SDS011;16639;51.488;0.152;2022-12-15T00:37:26;21.25;;;8.57;;
29730;SDS011;16639;51.488;0.152;2022-12-15T00:40:12;19.27;;;8.38;;
29730;SDS011;16639;51.488;0.152;2022-12-15T00:42:40;15.43;;;7.80;;
29730;SDS011;16639;51.488;0.152;2022-12-15T00:45:07;20.25;;;8.15;;
29730;SDS011;16639;51.488;0.152;2022-12-15T00:47:35;22.52;;;8.57;;
29730;SDS011;16639;51.488;0.152;2022-12-15T00:50:02;17.10;;;7.97;;
29730;SDS011;16639;51.488;0.152;2022-12-15T00:55:34;14.52;;;7.50;;
29730;SDS011;16639;51.488;0.152;2022-12-15T00:58:20;22.25;;;9.07;;
29730;SDS011;16639;51.488;0.152;2022-12-15T01:01:07;21.55;;;9.13;;
29730;SDS011;16639;51.488;0.152;2022-12-15T01:03:54;17.42;;;7.63;;
29730;SDS011;16639;51.488;0.152;2022-12-15T01:06:41;25.88;;;8.63;;
29730;SDS011;16639;51.488;0.152;2022-12-15T01:09:26;15.98;;;7.72;;
29730;SDS011;16639;51.488;0.152;2022-12-15T01:12:12;15.57;;;7.43;;
29730;SDS011;16639;51.488;0.152;2022-12-15T01:14:58;24.58;;;8.77;;
29730;SDS011;16639;51.488;0.152;2022-12-15T01:17:45;19.75;;;8.40;;
29730;SDS011;16639;51.488;0.152;2022-12-15T01:20:31;20.55;;;8.63;;
29730;SDS011;16639;51.488;0.152;2022-12-15T01:23:00;19.45;;;7.97;;
29730;SDS011;16639;51.488;0.152;2022-12-15T01:25:27;30.27;;;9.40;;
29730;SDS011;16639;51.488;0.152;2022-12-15T01:27:55;19.58;;;7.88;;
29730;SDS011;16639;51.488;0.152;2022-12-15T01:30:23;18.10;;;7.57;;
29730;SDS011;16639;51.488;0.152;2022-12-15T01:32:51;24.02;;;8.63;;
29730;SDS011;16639;51.488;0.152;2022-12-15T01:35:19;18.50;;;8.82;;
29730;SDS011;16639;51.488;0.152;2022-12-15T01:37:47;15.15;;;7.93;;
29730;SDS011;16639;51.488;0.152;2022-12-15T01:40:16;19.38;;;9.48;;
29730;SDS011;16639;51.488;0.152;2022-12-15T01:43:08;17.17;;;7.78;;
29730;SDS011;16639;51.488;0.152;2022-12-15T01:46:23;16.08;;;7.82;;
29730;SDS011;16639;51.488;0.152;2022-12-15T01:48:43;18.45;;;8.20;;
29730;SDS011;16639;51.488;0.152;2022-12-15T01:51:32;12.88;;;7.60;;
29730;SDS011;16639;51.488;0.152;2022-12-15T01:54:23;25.25;;;7.82;;
29730;SDS011;16639;51.488;0.152;2022-12-15T01:57:18;17.05;;;7.60;;
29730;SDS011;16639;51.488;0.152;2022-12-15T01:59:51;18.95;;;8.50;;
29730;SDS011;16639;51.488;0.152;2022-12-15T02:02:22;16.30;;;8.18;;
29730;SDS011;16639;51.488;0.152;2022-12-15T02:04:53;22.23;;;8.13;;
29730;SDS011;16639;51.488;0.152;2022-12-15T02:07:22;16.17;;;9.13;;
29730;SDS011;16639;51.488;0.152;2022-12-15T02:09:50;22.15;;;9.55;;
29730;SDS011;16639;51.488;0.152;2022-12-15T02:17:46;21.60;;;8.55;;
29730;SDS011;16639;51.488;0.152;2022-12-15T02:26:16;24.40;;;9.00;;
29730;SDS011;16639;51.488;0.152;2022-12-15T02:32:10;21.17;;;7.65;;
29730;SDS011;16639;51.488;0.152;2022-12-15T02:37:08;24.38;;;9.07;;
29730;SDS011;16639;51.488;0.152;2022-12-15T02:39:39;25.77;;;8.88;;
29730;SDS011;16639;51.488;0.152;2022-12-15T02:42:08;16.15;;;8.05;;
29730;SDS011;16639;51.488;0.152;2022-12-15T02:44:47;18.80;;;9.38;;
29730;SDS011;16639;51.488;0.152;2022-12-15T02:53:49;19.85;;;7.75;;
29730;SDS011;16639;51.488;0.152;2022-12-15T02:59:30;18.80;;;8.48;;
29730;SDS011;16639;51.488;0.152;2022-12-15T03:02:15;19.17;;;8.05;;
29730;SDS011;16639;51.488;0.152;2022-12-15T03:04:43;14.35;;;8.93;;
29730;SDS011;16639;51.488;0.152;2022-12-15T03:07:12;12.40;;;7.82;;
29730;SDS011;16639;51.488;0.152;2022-12-15T03:09:40;14.85;;;8.55;;
29730;SDS011;16639;51.488;0.152;2022-12-15T03:12:08;24.70;;;8.07;;
29730;SDS011;16639;51.488;0.152;2022-12-15T03:14:36;19.33;;;10.32;;
29730;SDS011;16639;51.488;0.152;2022-12-15T03:17:03;20.88;;;8.15;;
29730;SDS011;16639;51.488;0.152;2022-12-15T03:19:33;19.45;;;7.53;;
29730;SDS011;16639;51.488;0.152;2022-12-15T03:22:00;25.65;;;8.82;;
29730;SDS011;16639;51.488;0.152;2022-12-15T03:24:27;21.80;;;10.00;;
29730;SDS011;16639;51.488;0.152;2022-12-15T03:26:55;13.73;;;8.15;;
29730;SDS011;16639;51.488;0.152;2022-12-15T03:29:22;22.23;;;8.05;;
29730;SDS011;16639;51.488;0.152;2022-12-15T03:31:49;23.63;;;10.15;;
29730;SDS011;16639;51.488;0.152;2022-12-15T03:34:17;16.13;;;8.82;;
29730;SDS011;16639;51.488;0.152;2022-12-15T03:36:44;14.68;;;8.70;;
29730;SDS011;16639;51.488;0.152;2022-12-15T03:39:12;18.77;;;8.75;;
29730;SDS011;16639;51.488;0.152;2022-12-15T03:41:39;20.63;;;8.85;;
29730;SDS011;16639;51.488;0.152;2022-12-15T03:44:07;18.10;;;8.35;;
29730;SDS011;16639;51.488;0.152;2022-12-15T03:46:34;23.58;;;9.10;;
29730;SDS011;16639;51.488;0.152;2022-12-15T03:49:02;21.35;;;9.18;;
29730;SDS011;16639;51.488;0.152;2022-12-15T03:51:29;20.20;;;11.05;;
29730;SDS011;16639;51.488;0.152;2022-12-15T03:53:56;14.73;;;9.80;;
29730;SDS011;16639;51.488;0.152;2022-12-15T03:56:24;19.58;;;9.77;;
29730;SDS011;16639;51.488;0.152;2022-12-15T03:58:52;18.48;;;12.27;;
29730;SDS011;16639;51.488;0.152;2022-12-15T04:03:46;26.52;;;11.10;;
29730;SDS011;16639;51.488;0.152;2022-12-15T04:06:14;20.70;;;10.63;;
29730;SDS011;16639;51.488;0.152;2022-12-15T04:08:41;26.88;;;12.55;;
29730;SDS011;16639;51.488;0.152;2022-12-15T04:11:08;27.50;;;10.60;;
29730;SDS011;16639;51.488;0.152;2022-12-15T04:13:36;20.35;;;9.45;;
29730;SDS011;16639;51.488;0.152;2022-12-15T04:16:03;19.52;;;9.13;;
29730;SDS011;16639;51.488;0.152;2022-12-15T04:18:31;15.75;;;9.10;;
29730;SDS011;16639;51.488;0.152;2022-12-15T04:20:58;18.02;;;9.38;;
29730;SDS011;16639;51.488;0.152;2022-12-15T04:23:26;22.05;;;9.85;;
29730;SDS011;16639;51.488;0.152;2022-12-15T04:25:53;16.20;;;10.02;;
29730;SDS011;16639;51.488;0.152;2022-12-15T04:28:39;27.53;;;10.47;;
29730;SDS011;16639;51.488;0.152;2022-12-15T04:31:26;17.37;;;9.77;;
29730;SDS011;16639;51.488;0.152;2022-12-15T04:34:16;21.63;;;9.90;;
29730;SDS011;16639;51.488;0.152;2022-12-15T04:37:05;22.70;;;10.30;;
29730;SDS011;16639;51.488;0.152;2022-12-15T04:39:55;18.42;;;9.88;;
29730;SDS011;16639;51.488;0.152;2022-12-15T04:42:43;21.67;;;10.30;;
29730;SDS011;16639;51.488;0.152;2022-12-15T04:45:30;22.73;;;9.73;;
29730;SDS011;16639;51.488;0.152;2022-12-15T04:48:17;17.52;;;9.25;;
29730;SDS011;16639;51.488;0.152;2022-12-15T04:51:03;27.17;;;10.23;;
29730;SDS011;16639;51.488;0.152;2022-12-15T04:56:35;16.42;;;10.13;;
29730;SDS011;16639;51.488;0.152;2022-12-15T04:59:21;22.20;;;10.80;;
29730;SDS011;16639;51.488;0.152;2022-12-15T05:02:07;16.98;;;9.55;;
29730;SDS011;16639;51.488;0.152;2022-12-15T05:04:54;30.70;;;10.55;;
29730;SDS011;16639;51.488;0.152;2022-12-15T05:07:40;29.00;;;11.63;;
29730;SDS011;16639;51.488;0.152;2022-12-15T05:10:26;25.83;;;12.77;;
29730;SDS011;16639;51.488;0.152;2022-12-15T05:13:12;19.05;;;11.90;;
29730;SDS011;16639;51.488;0.152;2022-12-15T05:15:58;17.70;;;11.75;;
29730;SDS011;16639;51.488;0.152;2022-12-15T05:18:44;24.10;;;10.90;;
29730;SDS011;16639;51.488;0.152;2022-12-15T05:21:31;23.90;;;10.65;;
29730;SDS011;16639;51.488;0.152;2022-12-15T05:24:17;20.88;;;10.65;;
29730;SDS011;16639;51.488;0.152;2022-12-15T05:27:03;17.48;;;9.85;;
29730;SDS011;16639;51.488;0.152;2022-12-15T05:29:49;16.67;;;9.00;;
29730;SDS011;16639;51.488;0.152;2022-12-15T05:32:35;19.17;;;10.25;;
29730;SDS011;16639;51.488;0.152;2022-12-15T05:35:02;19.75;;;9.57;;
29730;SDS011;16639;51.488;0.152;2022-12-15T05:37:30;22.67;;;9.63;;
29730;SDS011;16639;51.488;0.152;2022-12-15T05:39:57;24.50;;;10.00;;
29730;SDS011;16639;51.488;0.152;2022-12-15T05:42:25;26.85;;;12.25;;
29730;SDS011;16639;51.488;0.152;2022-12-15T05:44:52;26.83;;;12.73;;
29730;SDS011;16639;51.488;0.152;2022-12-15T05:47:19;29.50;;;11.30;;
29730;SDS011;16639;51.488;0.152;2022-12-15T05:49:46;21.30;;;12.48;;
29730;SDS011;16639;51.488;0.152;2022-12-15T05:52:14;22.83;;;10.68;;
29730;SDS011;16639;51.488;0.152;2022-12-15T05:54:42;15.20;;;9.65;;
29730;SDS011;16639;51.488;0.152;2022-12-15T05:57:09;20.60;;;10.30;;
29730;SDS011;16639;51.488;0.152;2022-12-15T05:59:36;25.67;;;11.43;;
29730;SDS011;16639;51.488;0.152;2022-12-15T06:02:04;20.30;;;10.85;;
29730;SDS011;16639;51.488;0.152;2022-12-15T06:04:31;24.35;;;11.45;;
29730;SDS011;16639;51.488;0.152;2022-12-15T06:06:58;25.08;;;11.80;;
29730;SDS011;16639;51.488;0.152;2022-12-15T06:09:26;24.45;;;10.40;;
29730;SDS011;16639;51.488;0.152;2022-12-15T06:11:53;22.10;;;10.85;;
29730;SDS011;16639;51.488;0.152;2022-12-15T06:14:20;27.70;;;12.60;;
29730;SDS011;16639;51.488;0.152;2022-12-15T06:16:47;21.10;;;10.63;;
29730;SDS011;16639;51.488;0.152;2022-12-15T06:19:17;24.08;;;12.43;;
29730;SDS011;16639;51.488;0.152;2022-12-15T06:21:45;25.02;;;11.80;;
29730;SDS011;16639;51.488;0.152;2022-12-15T06:24:12;24.05;;;11.98;;
29730;SDS011;16639;51.488;0.152;2022-12-15T06:26:39;24.88;;;13.80;;
29730;SDS011;16639;51.488;0.152;2022-12-15T06:29:07;28.15;;;12.55;;
29730;SDS011;16639;51.488;0.152;2022-12-15T06:31:36;24.65;;;12.25;;
29730;SDS011;16639;51.488;0.152;2022-12-15T06:34:09;17.05;;;10.43;;
29730;SDS011;16639;51.488;0.152;2022-12-15T06:36:38;32.67;;;11.45;;
29730;SDS011;16639;51.488;0.152;2022-12-15T06:39:06;27.73;;;13.48;;
29730;SDS011;16639;51.488;0.152;2022-12-15T06:41:36;22.58;;;10.68;;
29730;SDS011;16639;51.488;0.152;2022-12-15T06:44:04;26.70;;;12.80;;
29730;SDS011;16639;51.488;0.152;2022-12-15T06:46:32;20.08;;;10.98;;
29730;SDS011;16639;51.488;0.152;2022-12-15T06:49:02;19.50;;;11.15;;
29730;SDS011;16639;51.488;0.152;2022-12-15T06:51:30;18.02;;;10.45;;
29730;SDS011;16639;51.488;0.152;2022-12-15T06:53:58;20.95;;;11.52;;
29730;SDS011;16639;51.488;0.152;2022-12-15T06:56:29;21.33;;;10.75;;
29730;SDS011;16639;51.488;0.152;2022-12-15T06:59:01;24.70;;;11.88;;
29730;SDS011;16639;51.488;0.152;2022-12-15T07:01:30;28.52;;;12.27;;
29730;SDS011;16639;51.488;0.152;2022-12-15T07:03:58;22.10;;;12.10;;
29730;SDS011;16639;51.488;0.152;2022-12-15T07:06:31;23.95;;;13.15;;
29730;SDS011;16639;51.488;0.152;2022-12-15T07:09:03;21.33;;;10.90;;
29730;SDS011;16639;51.488;0.152;2022-12-15T07:11:33;25.48;;;11.25;;
29730;SDS011;16639;51.488;0.152;2022-12-15T07:14:01;23.48;;;12.23;;
29730;SDS011;16639;51.488;0.152;2022-12-15T07:16:28;21.58;;;10.98;;
29730;SDS011;16639;51.488;0.152;2022-12-15T07:18:56;23.58;;;13.63;;
29730;SDS011;16639;51.488;0.152;2022-12-15T07:21:24;24.77;;;13.95;;
29730;SDS011;16639;51.488;0.152;2022-12-15T07:23:51;28.98;;;13.07;;
29730;SDS011;16639;51.488;0.152;2022-12-15T07:26:22;30.88;;;13.35;;
29730;SDS011;16639;51.488;0.152;2022-12-15T07:28:50;25.42;;;13.15;;
29730;SDS011;16639;51.488;0.152;2022-12-15T07:31:19;39.35;;;16.30;;
29730;SDS011;16639;51.488;0.152;2022-12-15T07:33:48;30.33;;;14.20;;
29730;SDS011;16639;51.488;0.152;2022-12-15T07:36:17;28.13;;;12.60;;
29730;SDS011;16639;51.488;0.152;2022-12-15T07:38:45;23.70;;;13.15;;
29730;SDS011;16639;51.488;0.152;2022-12-15T07:41:17;29.60;;;13.93;;
29730;SDS011;16639;51.488;0.152;2022-12-15T07:43:50;31.70;;;15.35;;
29730;SDS011;16639;51.488;0.152;2022-12-15T07:46:17;20.88;;;12.27;;
29730;SDS011;16639;51.488;0.152;2022-12-15T07:48:45;30.08;;;14.15;;
29730;SDS011;16639;51.488;0.152;2022-12-15T07:51:16;23.00;;;13.38;;
29730;SDS011;16639;51.488;0.152;2022-12-15T07:53:46;27.95;;;15.07;;
29730;SDS011;16639;51.488;0.152;2022-12-15T07:56:16;25.75;;;13.82;;
29730;SDS011;16639;51.488;0.152;2022-12-15T07:58:44;23.13;;;13.40;;
29730;SDS011;16639;51.488;0.152;2022-12-15T08:01:12;24.25;;;12.63;;
29730;SDS011;16639;51.488;0.152;2022-12-15T08:03:40;23.63;;;14.65;;
29730;SDS011;16639;51.488;0.152;2022-12-15T08:06:09;32.83;;;14.52;;
29730;SDS011;16639;51.488;0.152;2022-12-15T08:08:38;25.08;;;14.90;;
29730;SDS011;16639;51.488;0.152;2022-12-15T08:11:08;28.60;;;15.20;;
29730;SDS011;16639;51.488;0.152;2022-12-15T08:13:37;33.15;;;17.95;;
29730;SDS011;16639;51.488;0.152;2022-12-15T08:16:25;36.42;;;14.00;;
29730;SDS011;16639;51.488;0.152;2022-12-15T08:18:53;27.63;;;14.13;;
29730;SDS011;16639;51.488;0.152;2022-12-15T08:21:23;27.25;;;14.07;;
29730;SDS011;16639;51.488;0.152;2022-12-15T08:23:50;22.33;;;12.82;;
29730;SDS011;16639;51.488;0.152;2022-12-15T08:26:18;30.65;;;12.82;;
29730;SDS011;16639;51.488;0.152;2022-12-15T08:28:52;24.80;;;14.07;;
29730;SDS011;16639;51.488;0.152;2022-12-15T08:31:20;28.38;;;13.35;;
29730;SDS011;16639;51.488;0.152;2022-12-15T08:33:49;23.35;;;13.88;;
29730;SDS011;16639;51.488;0.152;2022-12-15T08:36:17;30.08;;;14.00;;
29730;SDS011;16639;51.488;0.152;2022-12-15T08:38:45;23.10;;;13.27;;
29730;SDS011;16639;51.488;0.152;2022-12-15T08:43:49;27.30;;;16.63;;
29730;SDS011;16639;51.488;0.152;2022-12-15T08:46:21;27.10;;;14.77;;
29730;SDS011;16639;51.488;0.152;2022-12-15T08:48:56;33.40;;;16.88;;
29730;SDS011;16639;51.488;0.152;2022-12-15T08:51:24;25.00;;;13.88;;
29730;SDS011;16639;51.488;0.152;2022-12-15T08:53:54;27.65;;;13.55;;
29730;SDS011;16639;51.488;0.152;2022-12-15T08:56:22;23.55;;;12.75;;
29730;SDS011;16639;51.488;0.152;2022-12-15T08:58:55;24.70;;;14.88;;
29730;SDS011;16639;51.488;0.152;2022-12-15T09:01:24;28.17;;;14.93;;
29730;SDS011;16639;51.488;0.152;2022-12-15T09:03:54;26.85;;;13.77;;
29730;SDS011;16639;51.488;0.152;2022-12-15T09:06:27;32.40;;;14.45;;
29730;SDS011;16639;51.488;0.152;2022-12-15T09:08:57;25.05;;;14.15;;
29730;SDS011;16639;51.488;0.152;2022-12-15T09:11:26;27.10;;;14.73;;
29730;SDS011;16639;51.488;0.152;2022-12-15T09:13:54;29.88;;;15.30;;
29730;SDS011;16639;51.488;0.152;2022-12-15T09:16:22;27.98;;;14.52;;
29730;SDS011;16639;51.488;0.152;2022-12-15T09:18:51;33.95;;;17.00;;
29730;SDS011;16639;51.488;0.152;2022-12-15T09:21:20;31.50;;;16.27;;
29730;SDS011;16639;51.488;0.152;2022-12-15T09:23:49;29.80;;;14.63;;
29730;SDS011;16639;51.488;0.152;2022-12-15T09:26:18;34.60;;;17.20;;
29730;SDS011;16639;51.488;0.152;2022-12-15T09:28:47;37.88;;;16.60;;
29730;SDS011;16639;51.488;0.152;2022-12-15T09:31:17;32.13;;;17.92;;
29730;SDS011;16639;51.488;0.152;2022-12-15T09:33:48;34.45;;;17.15;;
29730;SDS011;16639;51.488;0.152;2022-12-15T09:36:18;31.15;;;16.55;;
29730;SDS011;16639;51.488;0.152;2022-12-15T09:38:45;33.03;;;17.33;;
29730;SDS011;16639;51.488;0.152;2022-12-15T09:43:54;41.67;;;19.15;;
29730;SDS011;16639;51.488;0.152;2022-12-15T09:46:40;33.08;;;17.98;;
29730;SDS011;16639;51.488;0.152;2022-12-15T09:49:41;32.55;;;18.23;;
29730;SDS011;16639;51.488;0.152;2022-12-15T09:52:26;37.92;;;17.63;;
29730;SDS011;16639;51.488;0.152;2022-12-15T09:54:58;32.58;;;17.63;;
29730;SDS011;16639;51.488;0.152;2022-12-15T09:57:43;34.08;;;18.65;;
29730;SDS011;16639;51.488;0.152;2022-12-15T10:00:21;36.45;;;17.75;;
29730;SDS011;16639;51.488;0.152;2022-12-15T10:03:03;32.78;;;18.02;;
29730;SDS011;16639;51.488;0.152;2022-12-15T10:06:19;28.73;;;15.68;;
29730;SDS011;16639;51.488;0.152;2022-12-15T10:09:01;29.95;;;15.80;;
29730;SDS011;16639;51.488;0.152;2022-12-15T10:14:22;34.28;;;15.88;;
29730;SDS011;16639;51.488;0.152;2022-12-15T10:19:48;35.30;;;16.00;;
29730;SDS011;16639;51.488;0.152;2022-12-15T10:22:23;34.58;;;16.80;;
29730;SDS011;16639;51.488;0.152;2022-12-15T10:25:01;41.17;;;17.58;;
29730;SDS011;16639;51.488;0.152;2022-12-15T10:27:54;35.13;;;16.23;;
29730;SDS011;16639;51.488;0.152;2022-12-15T10:30:27;28.77;;;15.77;;
29730;SDS011;16639;51.488;0.152;2022-12-15T10:35:47;34.00;;;16.55;;
29730;SDS011;16639;51.488;0.152;2022-12-15T10:38:26;29.45;;;15.00;;
29730;SDS011;16639;51.488;0.152;2022-12-15T10:41:01;32.97;;;16.83;;
29730;SDS011;16639;51.488;0.152;2022-12-15T10:49:00;26.85;;;15.82;;
29730;SDS011;16639;51.488;0.152;2022-12-15T10:51:52;29.33;;;14.10;;
29730;SDS011;16639;51.488;0.152;2022-12-15T10:54:23;28.58;;;15.18;;
29730;SDS011;16639;51.488;0.152;2022-12-15T10:56:57;26.45;;;15.23;;
29730;SDS011;16639;51.488;0.152;2022-12-15T10:59:32;30.63;;;16.13;;
29730;SDS011;16639;51.488;0.152;2022-12-15T11:07:44;33.17;;;15.27;;
29730;SDS011;16639;51.488;0.152;2022-12-15T11:10:20;35.33;;;16.45;;
29730;SDS011;16639;51.488;0.152;2022-12-15T11:13:17;30.95;;;15.32;;
29730;SDS011;16639;51.488;0.152;2022-12-15T11:15:46;31.80;;;16.30;;
29730;SDS011;16639;51.488;0.152;2022-12-15T11:20:55;28.60;;;15.73;;
29730;SDS011;16639;51.488;0.152;2022-12-15T11:29:13;32.22;;;15.52;;
29730;SDS011;16639;51.488;0.152;2022-12-15T11:31:53;30.13;;;16.30;;
29730;SDS011;16639;51.488;0.152;2022-12-15T11:34:34;38.47;;;18.67;;
29730;SDS011;16639;51.488;0.152;2022-12-15T11:48:28;37.63;;;15.73;;
29730;SDS011;16639;51.488;0.152;2022-12-15T11:51:16;31.80;;;17.73;;
29730;SDS011;16639;51.488;0.152;2022-12-15T11:56:30;34.42;;;15.38;;
29730;SDS011;16639;51.488;0.152;2022-12-15T12:21:18;27.23;;;13.13;;
29730;SDS011;16639;51.488;0.152;2022-12-15T12:24:01;31.63;;;14.18;;
29730;SDS011;16639;51.488;0.152;2022-12-15T12:26:40;24.17;;;13.05;;
29730;SDS011;16639;51.488;0.152;2022-12-15T12:37:55;29.85;;;13.40;;
29730;SDS011;16639;51.488;0.152;2022-12-15T12:43:29;25.17;;;13.43;;
29730;SDS011;16639;51.488;0.152;2022-12-15T12:46:17;21.10;;;12.02;;
29730;SDS011;16639;51.488;0.152;2022-12-15T12:49:05;21.05;;;11.35;;
29730;SDS011;16639;51.488;0.152;2022-12-15T12:51:41;27.73;;;13.75;;
29730;SDS011;16639;51.488;0.152;2022-12-15T12:59:47;22.73;;;11.25;;
29730;SDS011;16639;51.488;0.152;2022-12-15T13:07:49;30.00;;;14.13;;
29730;SDS011;16639;51.488;0.152;2022-12-15T13:10:48;23.45;;;14.85;;
29730;SDS011;16639;51.488;0.152;2022-12-15T13:19:02;20.55;;;10.05;;
29730;SDS011;16639;51.488;0.152;2022-12-15T13:26:48;23.85;;;10.85;;
29730;SDS011;16639;51.488;0.152;2022-12-15T13:29:16;18.48;;;10.32;;
29730;SDS011;16639;51.488;0.152;2022-12-15T13:31:47;22.45;;;11.13;;
29730;SDS011;16639;51.488;0.152;2022-12-15T13:34:27;23.10;;;12.13;;
29730;SDS011;16639;51.488;0.152;2022-12-15T13:37:01;21.80;;;12.68;;
29730;SDS011;16639;51.488;0.152;2022-12-15T13:44:50;21.38;;;12.43;;
29730;SDS011;16639;51.488;0.152;2022-12-15T13:47:27;17.75;;;9.80;;
29730;SDS011;16639;51.488;0.152;2022-12-15T13:50:00;23.50;;;11.35;;
29730;SDS011;16639;51.488;0.152;2022-12-15T13:52:47;25.35;;;11.93;;
29730;SDS011;16639;51.488;0.152;2022-12-15T13:55:45;17.65;;;10.50;;
29730;SDS011;16639;51.488;0.152;2022-12-15T13:58:19;35.85;;;16.35;;
29730;SDS011;16639;51.488;0.152;2022-12-15T14:00:52;19.83;;;11.60;;
29730;SDS011;16639;51.488;0.152;2022-12-15T14:03:21;21.67;;;11.13;;
29730;SDS011;16639;51.488;0.152;2022-12-15T14:05:49;30.67;;;12.38;;
29730;SDS011;16639;51.488;0.152;2022-12-15T14:08:20;21.48;;;11.70;;
29730;SDS011;16639;51.488;0.152;2022-12-15T14:10:50;26.55;;;10.93;;
29730;SDS011;16639;51.488;0.152;2022-12-15T14:13:23;41.63;;;19.65;;
29730;SDS011;16639;51.488;0.152;2022-12-15T14:16:01;33.00;;;17.33;;
29730;SDS011;16639;51.488;0.152;2022-12-15T14:18:33;111.55;;;40.25;;
29730;SDS011;16639;51.488;0.152;2022-12-15T14:21:06;34.58;;;13.43;;
29730;SDS011;16639;51.488;0.152;2022-12-15T14:23:45;28.63;;;15.07;;
29730;SDS011;16639;51.488;0.152;2022-12-15T14:26:32;29.92;;;13.32;;
29730;SDS011;16639;51.488;0.152;2022-12-15T14:29:00;26.50;;;13.10;;
29730;SDS011;16639;51.488;0.152;2022-12-15T14:31:30;25.25;;;12.73;;
29730;SDS011;16639;51.488;0.152;2022-12-15T14:34:02;24.30;;;11.50;;
29730;SDS011;16639;51.488;0.152;2022-12-15T14:36:34;17.42;;;10.38;;
29730;SDS011;16639;51.488;0.152;2022-12-15T14:39:46;19.52;;;10.27;;
29730;SDS011;16639;51.488;0.152;2022-12-15T14:41:59;22.73;;;11.15;;
29730;SDS011;16639;51.488;0.152;2022-12-15T14:44:32;16.75;;;10.05;;
29730;SDS011;16639;51.488;0.152;2022-12-15T14:47:07;22.08;;;10.75;;
29730;SDS011;16639;51.488;0.152;2022-12-15T14:49:48;21.42;;;11.98;;
29730;SDS011;16639;51.488;0.152;2022-12-15T14:52:27;21.77;;;11.45;;
29730;SDS011;16639;51.488;0.152;2022-12-15T14:54:59;20.33;;;10.93;;
29730;SDS011;16639;51.488;0.152;2022-12-15T14:57:36;19.08;;;10.50;;
29730;SDS011;16639;51.488;0.152;2022-12-15T15:05:50;17.98;;;10.45;;
29730;SDS011;16639;51.488;0.152;2022-12-15T15:08:46;18.38;;;10.95;;
29730;SDS011;16639;51.488;0.152;2022-12-15T15:13:43;17.35;;;9.45;;
29730;SDS011;16639;51.488;0.152;2022-12-15T15:16:13;18.77;;;10.20;;
29730;SDS011;16639;51.488;0.152;2022-12-15T15:18:42;16.67;;;10.00;;
29730;SDS011;16639;51.488;0.152;2022-12-15T15:21:19;22.17;;;10.90;;
29730;SDS011;16639;51.488;0.152;2022-12-15T15:23:58;21.60;;;11.00;;
29730;SDS011;16639;51.488;0.152;2022-12-15T15:26:27;17.95;;;9.48;;
29730;SDS011;16639;51.488;0.152;2022-12-15T15:28:55;22.48;;;9.57;;
29730;SDS011;16639;51.488;0.152;2022-12-15T15:33:51;17.98;;;9.13;;
29730;SDS011;16639;51.488;0.152;2022-12-15T15:36:19;14.93;;;9.85;;
29730;SDS011;16639;51.488;0.152;2022-12-15T15:38:48;18.58;;;10.48;;
29730;SDS011;16639;51.488;0.152;2022-12-15T15:41:20;19.30;;;9.75;;
29730;SDS011;16639;51.488;0.152;2022-12-15T15:43:55;23.55;;;10.23;;
29730;SDS011;16639;51.488;0.152;2022-12-15T15:46:28;17.88;;;10.38;;
29730;SDS011;16639;51.488;0.152;2022-12-15T15:49:01;18.17;;;8.98;;
29730;SDS011;16639;51.488;0.152;2022-12-15T15:51:32;24.75;;;11.63;;
29730;SDS011;16639;51.488;0.152;2022-12-15T15:54:09;22.60;;;10.27;;
29730;SDS011;16639;51.488;0.152;2022-12-15T15:56:39;19.05;;;9.90;;
29730;SDS011;16639;51.488;0.152;2022-12-15T15:59:11;19.50;;;9.73;;
29730;SDS011;16639;51.488;0.152;2022-12-15T16:01:44;22.40;;;10.68;;
29730;SDS011;16639;51.488;0.152;2022-12-15T16:04:14;18.65;;;10.68;;
29730;SDS011;16639;51.488;0.152;2022-12-15T16:06:41;19.63;;;10.88;;
29730;SDS011;16639;51.488;0.152;2022-12-15T16:09:13;23.38;;;10.77;;
29730;SDS011;16639;51.488;0.152;2022-12-15T16:11:42;29.80;;;10.65;;
29730;SDS011;16639;51.488;0.152;2022-12-15T16:14:12;17.85;;;10.93;;
29730;SDS011;16639;51.488;0.152;2022-12-15T16:16:41;15.65;;;10.95;;
29730;SDS011;16639;51.488;0.152;2022-12-15T16:19:08;23.73;;;13.27;;
29730;SDS011;16639;51.488;0.152;2022-12-15T16:21:38;28.13;;;15.60;;
29730;SDS011;16639;51.488;0.152;2022-12-15T16:24:15;24.58;;;12.30;;
29730;SDS011;16639;51.488;0.152;2022-12-15T16:26:46;28.40;;;12.40;;
29730;SDS011;16639;51.488;0.152;2022-12-15T16:29:16;23.77;;;12.25;;
29730;SDS011;16639;51.488;0.152;2022-12-15T16:31:46;20.70;;;12.45;;
29730;SDS011;16639;51.488;0.152;2022-12-15T16:34:14;22.90;;;12.82;;
29730;SDS011;16639;51.488;0.152;2022-12-15T16:36:47;21.17;;;12.25;;
29730;SDS011;16639;51.488;0.152;2022-12-15T16:39:24;25.75;;;12.73;;
29730;SDS011;16639;51.488;0.152;2022-12-15T16:42:00;22.65;;;11.75;;
29730;SDS011;16639;51.488;0.152;2022-12-15T16:44:28;20.25;;;12.77;;
29730;SDS011;16639;51.488;0.152;2022-12-15T16:46:56;20.80;;;12.23;;
29730;SDS011;16639;51.488;0.152;2022-12-15T16:49:24;24.08;;;13.88;;
29730;SDS011;16639;51.488;0.152;2022-12-15T16:51:54;18.88;;;10.88;;
29730;SDS011;16639;51.488;0.152;2022-12-15T16:54:24;27.23;;;11.88;;
29730;SDS011;16639;51.488;0.152;2022-12-15T16:56:55;27.00;;;12.23;;
29730;SDS011;16639;51.488;0.152;2022-12-15T16:59:23;21.90;;;11.18;;
29730;SDS011;16639;51.488;0.152;2022-12-15T17:01:59;27.13;;;11.73;;
29730;SDS011;16639;51.488;0.152;2022-12-15T17:04:27;25.02;;;12.18;;
29730;SDS011;16639;51.488;0.152;2022-12-15T17:06:55;22.90;;;11.45;;
29730;SDS011;16639;51.488;0.152;2022-12-15T17:09:22;24.50;;;10.65;;
29730;SDS011;16639;51.488;0.152;2022-12-15T17:11:51;23.98;;;11.35;;
29730;SDS011;16639;51.488;0.152;2022-12-15T17:14:20;21.85;;;12.25;;
29730;SDS011;16639;51.488;0.152;2022-12-15T17:16:47;24.58;;;12.65;;
29730;SDS011;16639;51.488;0.152;2022-12-15T17:19:15;24.83;;;13.02;;
29730;SDS011;16639;51.488;0.152;2022-12-15T17:21:47;25.15;;;13.05;;
29730;SDS011;16639;51.488;0.152;2022-12-15T17:24:18;33.15;;;16.60;;
29730;SDS011;16639;51.488;0.152;2022-12-15T17:26:47;29.88;;;13.02;;
29730;SDS011;16639;51.488;0.152;2022-12-15T17:29:16;23.73;;;13.98;;
29730;SDS011;16639;51.488;0.152;2022-12-15T17:31:46;27.20;;;14.65;;
29730;SDS011;16639;51.488;0.152;2022-12-15T17:36:44;30.70;;;17.95;;
29730;SDS011;16639;51.488;0.152;2022-12-15T17:39:11;33.55;;;17.23;;
29730;SDS011;16639;51.488;0.152;2022-12-15T17:41:46;26.80;;;14.68;;